Thursday, February 22, 2018, 5:30 AM EST
Back to Local

KISP, Islip Long Island Mac Art

Location: Ronkonkoma, NY, United States Lat: 40.8
Local Time: 5:30 AM EST (10:30 GMT) Lon: -73.1
Time Zone: US/Eastern Elev: 98 ft

Show me the last for .
Show Decoded

2018-02-22 04:56 METAR KISP 220956Z AUTO 36010KT 10SM OVC050 09/03 A3051 RMK AO2 SLP329 T00890028
                 =
2018-02-22 03:56 METAR KISP 220856Z AUTO 01011KT 10SM OVC048 09/04 A3048 RMK AO2 RAE13 SLP321
                 P0000 60000 T00940044 51024 =
2018-02-22 02:56 METAR KISP 220756Z AUTO 36010KT 10SM -RA OVC045 11/05 A3047 RMK AO2 RAE01B44
                 SLP318 P0000 T01060050 =
2018-02-22 01:56 METAR KISP 220656Z AUTO 35009KT 10SM -RA OVC040 12/04 A3044 RMK AO2 RAE03B42
                 SLP307 P0000 T01170044 =
2018-02-22 00:56 METAR KISP 220556Z AUTO 36006KT 10SM -RA OVC040 13/06 A3041 RMK AO2 RAB52 SLP297
                 P0000 60001 T01280061 10156 20117 53016 =
2018-02-21 23:56 METAR KISP 220456Z 34005KT 10SM SCT035 OVC042 13/09 A3039 RMK AO2 RAE16 SLP289
                 LAST P0000 T01280094 401610083 =
2018-02-21 22:56 METAR KISP 220356Z 36008KT 10SM -RA SCT026 OVC034 12/11 A3037 RMK AO2 RAB30
                 SLP285 P0001 T01220106 =
2018-02-21 21:56 METAR KISP 220256Z 36009KT 10SM SCT029 BKN036 OVC060 15/12 A3036 RMK AO2 SLP280
                 T01500122 53033 =
2018-02-21 20:56 METAR KISP 220156Z 34004KT 10SM SCT027 BKN050 OVC065 12/11 A3033 RMK AO2 SLP269
                 T01220111 =
2018-02-21 19:56 METAR KISP 220056Z 23008KT 10SM FEW080 SCT130 SCT250 12/11 A3028 RMK AO2 SLP254
                 T01170106 =
2018-02-21 18:56 METAR KISP 212356Z 23008KT 10SM FEW100 SCT250 12/11 A3026 RMK AO2 SLP248
                 T01220111 10161 20122 53014 =
2018-02-21 17:56 METAR KISP 212256Z 23010KT 10SM FEW100 FEW250 12/11 A3025 RMK AO2 SLP243
                 T01220111 =
2018-02-21 16:56 METAR KISP 212156Z 21010G16KT 10SM FEW250 14/11 A3023 RMK AO2 SLP236 T01390111 =
2018-02-21 15:56 METAR KISP 212056Z 21008KT 10SM FEW250 16/12 A3022 RMK AO2 SLP233 T01560117
                 56005 =
2018-02-21 14:56 METAR KISP 211956Z 23010KT 10SM FEW005 FEW250 16/12 A3022 RMK AO2 SLP234
                 T01560117 =
2018-02-21 14:21 METAR KISP 211921Z 21009KT 10SM FEW005 FEW250 15/12 A3022 RMK AO2 T01500117 =
2018-02-21 13:56 METAR KISP 211856Z 22010KT 10SM OVC005 14/12 A3023 RMK AO2 SLP236 T01390117 =
2018-02-21 13:11 METAR KISP 211811Z 22012KT 10SM BKN005 BKN250 15/12 A3024 RMK AO2 T01500122 =
2018-02-21 12:56 METAR KISP 211756Z 22009KT 4SM BR BKN004 14/12 A3024 RMK AO2 SLP238 T01390122
                 10139 20089 58024 =
2018-02-21 11:56 METAR KISP 211656Z 22012KT 1/4SM R06/6000VP6000FT BR OVC002 11/11 A3027 RMK AO2
                 SFC VIS 1 SLP250 T01110111 =
2018-02-21 11:25 METAR KISP 211625Z 22008KT 1/2SM R06/P6000FT BR OVC002 11/11 A3029 RMK AO2 SFC
                 VIS 2 T01110111 =
2018-02-21 10:56 METAR KISP 211556Z 22010KT 1/4SM R06/5500VP6000FT BR OVC002 11/11 A3030 RMK AO2
                 SFC VIS 1 SLP259 T01110111 =
2018-02-21 09:56 METAR KISP 211456Z 22008KT 1/8SM R06/3000V4000FT BR VV002 11/11 A3031 RMK AO2
                 SFC VIS 3/4 SLP263 T01060106 56005 =
2018-02-21 09:04 METAR KISP 211404Z 21010KT 1/8SM R06/1800V2400FT FG VV002 10/10 A3031 RMK AO2
                 SFC VIS 1/4 T01000100 =
2018-02-21 08:56 METAR KISP 211356Z 21008KT 1/8SM R06/1800V2000FT FG VV002 11/11 A3031 RMK AO2
                 SLP265 T01060106 =
2018-02-21 08:54 METAR KISP 211354Z 21007KT 1/8SM R06/1800V2000FT FG VV002 10/10 A3031 RMK AO2 =
2018-02-21 07:56 METAR KISP 211256Z 21009KT 1/16SM R06/1000V1200FT FG VV001 09/09 A3032 RMK AO2
                 SFC VIS 1/8 SLP268 T00940094 =
2018-02-21 07:35 METAR KISP 211235Z 22010KT 1/16SM R06/1000V1200FT FG VV001 09/09 A3032 RMK AO2
                 SFC VIS 1/8 T00890089 =
2018-02-21 06:56 METAR KISP 211156Z 22010KT 1/8SM R06/1800FT FG VV002 09/09 A3031 RMK AO2 SLP265
                 T00890089 10111 20083 55002 =
2018-02-21 06:39 METAR KISP 211139Z 21011KT 1/8SM R06/1800V2600FT FG VV002 09/09 A3031 RMK AO2
                 T00890089 =
2018-02-21 05:56 METAR KISP 211056Z 22011KT 1/8SM R06/1400V2000FT FG VV001 09/09 A3031 RMK AO2
                 SLP264 T00890089 =
2018-02-21 05:52 METAR KISP 211052Z AUTO 22014KT 1/4SM R06/1800V2000FT FG VV001 09/09 A3031 RMK
                 AO2 =
2018-02-21 05:44 METAR KISP 211044Z AUTO 22011G18KT 1/4SM R06/1800V2400FT FG VV002 09/09 A3031
                 RMK AO2 T00890089 =

Support USWX by starting your Amazon purchase here.